Long Lake, NY (12847)

2:54 AM EST on February 13, 2016 (GMT -0500)
Adirondack Acres | | Change Station
CLOSE
Current Station
Personal Weather Station
Location: Long Lake, NY
Elevation: 1650 ft
Nearby Weather Stations
Active Advisory: Wind Chill Warning

Elev 1650 ft 43.98 °N, 74.43 °W | Updated 3 seconds ago

Overcast
Overcast
8.4 °F
Feels Like 8 °F
N
0.0
Wind Variable Wind from SW
Gusts 0.0 mph

Today
High -- | Low -- °F
--% Chance of Precip.
Yesterday
High -- | Low -- °F
Precip. -- in
Pressure 29.81 in
Visibility 1.0 miles
Clouds
Windchill 8 °F
Dew Point -8 °F
Humidity 45%
Rainfall 0.00 in
Snow Depth Not available.
7:00 AM 5:24 PM
Waxing Crescent, 28% visible
METAR KSLK 130751Z AUTO VRB06KT 1SM -SN VV014 M14/M17 A2971 RMK AO2 SLP092 P0000 T11391167 $
Pressure 29.81 in
Visibility 1.0 miles
Clouds
Windchill 8 °F
Dew Point -8 °F
Humidity 45%
Rainfall 0.00 in
Snow Depth Not available.
7:00 AM 5:24 PM
Waxing Crescent, 28% visible
METAR KSLK 130751Z AUTO VRB06KT 1SM -SN VV014 M14/M17 A2971 RMK AO2 SLP092 P0000 T11391167 $

10-Day Weather Forecast

Almanac

Astronomy

Feb. 13, 2016 Rise Set
Actual Time
Civil Twilight
Nautical Twilight
Astronomical Twilight
Moon
Length of Visible Light
Length of Day
Tomorrow will be .
, % of the Moon is Illuminated

Today's Extremes

State Highs State Lows

Community

WunderPhotos

Upload Photos

1,892,526 photos uploaded!

WunderBlog® & News

Nearby

Air Quality

  Air Quality AQ Index Pollutant
Not available.

Snow Depth

Station Depth Elevation

Earthquake Activity

City Distance Mag. Time & Date
Minimum magnitude displayed is 2.5.

Coastal Water Temperatures

Place Temperature

Stations

Nearby Weather Stations

Station Location Temp. Windchill Dew Point Humidity Wind Precip. Elev Updated Type
                   

Watches & Warnings

Wind Chill Warning
Issued: 3:32 PM EST Feb. 12, 2016 – National Weather Service

... Wind chill warning remains in effect from 3 am Saturday to
1 PM EST Sunday...

* locations... western and southern Adirondacks... Schoharie
valley... eastern Catskills... western Mohawk Valley...
helderbergs and southern Vermont.

* Hazard types... dangerous to potentially life threatening wind
chills.

* Wind chill values... 30 to 60 below zero at times

* timing... late tonight through Sunday afternoon.

* Impacts... wind chills will reach dangerous to potentially life
threatening levels. Frigid temperatures have the potential to
result in frozen pipes... frostbite and hypothermia in a short
amount of time.

* Winds... northwest 15 to 25 mph with gusts up to 35 mph.

* Temperatures... 15 below to 30 below by Saturday night.

Precautionary/preparedness actions...

A wind chill warning means the combination of very cold air and
strong winds will create dangerously low wind chill values. This
will result in frost bite and lead to hypothermia or death if
precautions are not taken.